sensor_id;sensor_type;location;lat;lon;timestamp;P1;durP1;ratioP1;P2;durP2;ratioP2
67867;SDS011;54672;46.096;14.470;2024-02-23T00:01:25;2.25;;;1.00;;
67867;SDS011;54672;46.096;14.470;2024-02-23T00:03:51;2.80;;;1.02;;
67867;SDS011;54672;46.096;14.470;2024-02-23T00:06:17;1.85;;;1.00;;
67867;SDS011;54672;46.096;14.470;2024-02-23T00:08:43;1.38;;;0.75;;
67867;SDS011;54672;46.096;14.470;2024-02-23T00:11:08;3.10;;;1.17;;
67867;SDS011;54672;46.096;14.470;2024-02-23T00:13:34;2.03;;;1.10;;
67867;SDS011;54672;46.096;14.470;2024-02-23T00:16:00;1.85;;;1.00;;
67867;SDS011;54672;46.096;14.470;2024-02-23T00:18:25;1.55;;;1.02;;
67867;SDS011;54672;46.096;14.470;2024-02-23T00:20:51;1.90;;;1.00;;
67867;SDS011;54672;46.096;14.470;2024-02-23T00:23:16;2.13;;;1.00;;
67867;SDS011;54672;46.096;14.470;2024-02-23T00:25:42;1.30;;;0.93;;
67867;SDS011;54672;46.096;14.470;2024-02-23T00:28:07;2.55;;;0.90;;
67867;SDS011;54672;46.096;14.470;2024-02-23T00:30:33;2.17;;;1.15;;
67867;SDS011;54672;46.096;14.470;2024-02-23T00:32:58;2.15;;;1.05;;
67867;SDS011;54672;46.096;14.470;2024-02-23T00:35:24;2.05;;;1.13;;
67867;SDS011;54672;46.096;14.470;2024-02-23T00:37:49;1.77;;;1.15;;
67867;SDS011;54672;46.096;14.470;2024-02-23T00:40:15;3.20;;;0.88;;
67867;SDS011;54672;46.096;14.470;2024-02-23T00:42:40;1.42;;;1.00;;
67867;SDS011;54672;46.096;14.470;2024-02-23T00:45:06;1.70;;;1.00;;
67867;SDS011;54672;46.096;14.470;2024-02-23T00:47:32;1.20;;;0.77;;
67867;SDS011;54672;46.096;14.470;2024-02-23T00:49:57;2.50;;;1.02;;
67867;SDS011;54672;46.096;14.470;2024-02-23T00:52:23;1.80;;;1.15;;
67867;SDS011;54672;46.096;14.470;2024-02-23T00:54:48;2.30;;;1.20;;
67867;SDS011;54672;46.096;14.470;2024-02-23T00:57:14;2.33;;;1.20;;
67867;SDS011;54672;46.096;14.470;2024-02-23T00:59:40;2.55;;;1.10;;
67867;SDS011;54672;46.096;14.470;2024-02-23T01:02:06;2.03;;;1.00;;
67867;SDS011;54672;46.096;14.470;2024-02-23T01:04:31;2.80;;;1.00;;
67867;SDS011;54672;46.096;14.470;2024-02-23T01:06:57;2.30;;;1.20;;
67867;SDS011;54672;46.096;14.470;2024-02-23T01:09:23;2.00;;;1.10;;
67867;SDS011;54672;46.096;14.470;2024-02-23T01:11:48;1.55;;;0.98;;
67867;SDS011;54672;46.096;14.470;2024-02-23T01:14:14;2.85;;;1.30;;
67867;SDS011;54672;46.096;14.470;2024-02-23T01:16:40;2.42;;;0.90;;
67867;SDS011;54672;46.096;14.470;2024-02-23T01:19:06;1.48;;;1.00;;
67867;SDS011;54672;46.096;14.470;2024-02-23T01:21:31;1.80;;;1.10;;
67867;SDS011;54672;46.096;14.470;2024-02-23T01:23:56;1.80;;;1.00;;
67867;SDS011;54672;46.096;14.470;2024-02-23T01:26:22;3.30;;;1.35;;
67867;SDS011;54672;46.096;14.470;2024-02-23T01:28:48;1.58;;;0.95;;
67867;SDS011;54672;46.096;14.470;2024-02-23T01:31:14;2.88;;;1.40;;
67867;SDS011;54672;46.096;14.470;2024-02-23T01:33:39;2.40;;;1.40;;
67867;SDS011;54672;46.096;14.470;2024-02-23T01:36:05;1.30;;;0.98;;
67867;SDS011;54672;46.096;14.470;2024-02-23T01:38:32;4.60;;;1.30;;
67867;SDS011;54672;46.096;14.470;2024-02-23T01:41:01;1.60;;;1.00;;
67867;SDS011;54672;46.096;14.470;2024-02-23T01:43:27;2.15;;;1.20;;
67867;SDS011;54672;46.096;14.470;2024-02-23T01:45:52;1.05;;;0.85;;
67867;SDS011;54672;46.096;14.470;2024-02-23T01:48:18;1.88;;;1.05;;
67867;SDS011;54672;46.096;14.470;2024-02-23T01:50:44;1.45;;;0.90;;
67867;SDS011;54672;46.096;14.470;2024-02-23T01:53:10;3.05;;;1.27;;
67867;SDS011;54672;46.096;14.470;2024-02-23T01:55:38;5.63;;;1.20;;
67867;SDS011;54672;46.096;14.470;2024-02-23T01:58:06;2.78;;;1.10;;
67867;SDS011;54672;46.096;14.470;2024-02-23T02:00:32;1.58;;;1.00;;
67867;SDS011;54672;46.096;14.470;2024-02-23T02:02:57;2.80;;;0.95;;
67867;SDS011;54672;46.096;14.470;2024-02-23T02:05:23;1.30;;;0.90;;
67867;SDS011;54672;46.096;14.470;2024-02-23T02:07:53;1.80;;;1.20;;
67867;SDS011;54672;46.096;14.470;2024-02-23T02:10:23;2.75;;;1.20;;
67867;SDS011;54672;46.096;14.470;2024-02-23T02:12:49;2.38;;;1.17;;
67867;SDS011;54672;46.096;14.470;2024-02-23T02:15:15;2.30;;;1.25;;
67867;SDS011;54672;46.096;14.470;2024-02-23T02:17:41;1.92;;;1.17;;
67867;SDS011;54672;46.096;14.470;2024-02-23T02:20:06;1.38;;;1.02;;
67867;SDS011;54672;46.096;14.470;2024-02-23T02:22:36;1.92;;;1.17;;
67867;SDS011;54672;46.096;14.470;2024-02-23T02:25:02;2.00;;;1.10;;
67867;SDS011;54672;46.096;14.470;2024-02-23T02:27:28;3.97;;;1.25;;
67867;SDS011;54672;46.096;14.470;2024-02-23T02:29:53;1.70;;;1.08;;
67867;SDS011;54672;46.096;14.470;2024-02-23T02:32:19;2.65;;;1.10;;
67867;SDS011;54672;46.096;14.470;2024-02-23T02:34:44;3.47;;;1.20;;
67867;SDS011;54672;46.096;14.470;2024-02-23T02:37:10;2.15;;;1.30;;
67867;SDS011;54672;46.096;14.470;2024-02-23T02:39:35;2.28;;;1.38;;
67867;SDS011;54672;46.096;14.470;2024-02-23T02:42:01;2.35;;;1.15;;
67867;SDS011;54672;46.096;14.470;2024-02-23T02:44:26;2.38;;;1.20;;
67867;SDS011;54672;46.096;14.470;2024-02-23T02:46:55;1.77;;;1.10;;
67867;SDS011;54672;46.096;14.470;2024-02-23T02:49:21;2.10;;;1.17;;
67867;SDS011;54672;46.096;14.470;2024-02-23T02:51:47;1.70;;;1.15;;
67867;SDS011;54672;46.096;14.470;2024-02-23T02:54:12;2.85;;;1.30;;
67867;SDS011;54672;46.096;14.470;2024-02-23T02:56:42;2.28;;;1.20;;
67867;SDS011;54672;46.096;14.470;2024-02-23T02:59:08;2.33;;;1.20;;
67867;SDS011;54672;46.096;14.470;2024-02-23T03:01:33;2.28;;;1.30;;
67867;SDS011;54672;46.096;14.470;2024-02-23T03:03:59;3.55;;;1.17;;
67867;SDS011;54672;46.096;14.470;2024-02-23T03:06:24;3.45;;;1.58;;
67867;SDS011;54672;46.096;14.470;2024-02-23T03:08:49;2.25;;;1.40;;
67867;SDS011;54672;46.096;14.470;2024-02-23T03:11:15;2.50;;;1.35;;
67867;SDS011;54672;46.096;14.470;2024-02-23T03:13:40;2.50;;;1.40;;
67867;SDS011;54672;46.096;14.470;2024-02-23T03:16:06;2.30;;;1.45;;
67867;SDS011;54672;46.096;14.470;2024-02-23T03:18:31;3.55;;;1.40;;
67867;SDS011;54672;46.096;14.470;2024-02-23T03:20:56;2.35;;;1.40;;
67867;SDS011;54672;46.096;14.470;2024-02-23T03:23:22;2.67;;;1.48;;
67867;SDS011;54672;46.096;14.470;2024-02-23T03:25:48;3.33;;;1.65;;
67867;SDS011;54672;46.096;14.470;2024-02-23T03:28:13;2.30;;;1.20;;
67867;SDS011;54672;46.096;14.470;2024-02-23T03:30:39;3.00;;;1.80;;
67867;SDS011;54672;46.096;14.470;2024-02-23T03:33:04;2.83;;;1.50;;
67867;SDS011;54672;46.096;14.470;2024-02-23T03:35:30;2.72;;;1.40;;
67867;SDS011;54672;46.096;14.470;2024-02-23T03:37:55;3.30;;;1.90;;
67867;SDS011;54672;46.096;14.470;2024-02-23T03:40:21;4.70;;;1.60;;
67867;SDS011;54672;46.096;14.470;2024-02-23T03:42:46;3.50;;;1.70;;
67867;SDS011;54672;46.096;14.470;2024-02-23T03:45:11;3.40;;;1.75;;
67867;SDS011;54672;46.096;14.470;2024-02-23T03:47:37;2.83;;;1.42;;
67867;SDS011;54672;46.096;14.470;2024-02-23T03:50:04;4.60;;;1.75;;
67867;SDS011;54672;46.096;14.470;2024-02-23T03:52:29;4.78;;;1.98;;
67867;SDS011;54672;46.096;14.470;2024-02-23T03:54:55;2.67;;;1.77;;
67867;SDS011;54672;46.096;14.470;2024-02-23T03:57:20;2.63;;;1.63;;
67867;SDS011;54672;46.096;14.470;2024-02-23T03:59:52;3.53;;;2.05;;
67867;SDS011;54672;46.096;14.470;2024-02-23T04:02:18;5.07;;;2.38;;
67867;SDS011;54672;46.096;14.470;2024-02-23T04:04:44;5.05;;;2.33;;
67867;SDS011;54672;46.096;14.470;2024-02-23T04:07:09;6.13;;;3.13;;
67867;SDS011;54672;46.096;14.470;2024-02-23T04:09:35;6.90;;;2.65;;
67867;SDS011;54672;46.096;14.470;2024-02-23T04:12:00;5.53;;;2.85;;
67867;SDS011;54672;46.096;14.470;2024-02-23T04:14:26;5.60;;;2.28;;
67867;SDS011;54672;46.096;14.470;2024-02-23T04:16:51;2.95;;;1.85;;
67867;SDS011;54672;46.096;14.470;2024-02-23T04:19:17;4.95;;;2.05;;
67867;SDS011;54672;46.096;14.470;2024-02-23T04:21:42;6.20;;;1.65;;
67867;SDS011;54672;46.096;14.470;2024-02-23T04:24:07;5.38;;;2.17;;
67867;SDS011;54672;46.096;14.470;2024-02-23T04:26:33;3.83;;;2.03;;
67867;SDS011;54672;46.096;14.470;2024-02-23T04:28:59;6.82;;;2.30;;
67867;SDS011;54672;46.096;14.470;2024-02-23T04:31:24;5.22;;;2.40;;
67867;SDS011;54672;46.096;14.470;2024-02-23T04:33:50;4.78;;;2.28;;
67867;SDS011;54672;46.096;14.470;2024-02-23T04:36:18;6.07;;;2.20;;
67867;SDS011;54672;46.096;14.470;2024-02-23T04:38:44;4.53;;;2.17;;
67867;SDS011;54672;46.096;14.470;2024-02-23T04:41:10;7.22;;;2.45;;
67867;SDS011;54672;46.096;14.470;2024-02-23T04:43:35;4.85;;;2.60;;
67867;SDS011;54672;46.096;14.470;2024-02-23T04:46:01;3.03;;;1.67;;
67867;SDS011;54672;46.096;14.470;2024-02-23T04:48:27;3.67;;;2.00;;
67867;SDS011;54672;46.096;14.470;2024-02-23T04:50:52;3.80;;;2.17;;
67867;SDS011;54672;46.096;14.470;2024-02-23T04:53:18;5.35;;;2.60;;
67867;SDS011;54672;46.096;14.470;2024-02-23T04:55:44;4.47;;;2.40;;
67867;SDS011;54672;46.096;14.470;2024-02-23T04:58:10;7.45;;;2.65;;
67867;SDS011;54672;46.096;14.470;2024-02-23T05:00:37;6.10;;;2.60;;
67867;SDS011;54672;46.096;14.470;2024-02-23T05:03:02;8.65;;;3.25;;
67867;SDS011;54672;46.096;14.470;2024-02-23T05:05:31;6.90;;;2.30;;
67867;SDS011;54672;46.096;14.470;2024-02-23T05:07:57;4.00;;;2.17;;
67867;SDS011;54672;46.096;14.470;2024-02-23T05:10:23;4.55;;;2.53;;
67867;SDS011;54672;46.096;14.470;2024-02-23T05:12:48;8.73;;;3.67;;
67867;SDS011;54672;46.096;14.470;2024-02-23T05:15:14;4.32;;;2.33;;
67867;SDS011;54672;46.096;14.470;2024-02-23T05:17:40;3.97;;;2.08;;
67867;SDS011;54672;46.096;14.470;2024-02-23T05:20:06;3.95;;;2.13;;
67867;SDS011;54672;46.096;14.470;2024-02-23T05:22:35;4.50;;;2.50;;
67867;SDS011;54672;46.096;14.470;2024-02-23T05:25:03;5.18;;;2.47;;
67867;SDS011;54672;46.096;14.470;2024-02-23T05:27:32;6.70;;;2.40;;
67867;SDS011;54672;46.096;14.470;2024-02-23T05:29:57;4.93;;;1.92;;
67867;SDS011;54672;46.096;14.470;2024-02-23T05:32:23;9.38;;;4.53;;
67867;SDS011;54672;46.096;14.470;2024-02-23T05:34:49;5.95;;;2.75;;
67867;SDS011;54672;46.096;14.470;2024-02-23T05:37:16;5.63;;;2.85;;
67867;SDS011;54672;46.096;14.470;2024-02-23T05:39:42;4.90;;;2.25;;
67867;SDS011;54672;46.096;14.470;2024-02-23T05:42:08;3.60;;;1.73;;
67867;SDS011;54672;46.096;14.470;2024-02-23T05:44:33;6.60;;;2.65;;
67867;SDS011;54672;46.096;14.470;2024-02-23T05:46:59;5.90;;;2.50;;
67867;SDS011;54672;46.096;14.470;2024-02-23T05:49:24;4.07;;;2.10;;
67867;SDS011;54672;46.096;14.470;2024-02-23T05:51:49;7.20;;;3.40;;
67867;SDS011;54672;46.096;14.470;2024-02-23T05:54:15;6.43;;;2.85;;
67867;SDS011;54672;46.096;14.470;2024-02-23T05:56:40;6.55;;;3.45;;
67867;SDS011;54672;46.096;14.470;2024-02-23T05:59:06;9.93;;;3.95;;
67867;SDS011;54672;46.096;14.470;2024-02-23T06:01:31;7.20;;;3.92;;
67867;SDS011;54672;46.096;14.470;2024-02-23T06:03:57;4.82;;;2.92;;
67867;SDS011;54672;46.096;14.470;2024-02-23T06:06:22;4.70;;;2.10;;
67867;SDS011;54672;46.096;14.470;2024-02-23T06:08:48;6.03;;;2.65;;
67867;SDS011;54672;46.096;14.470;2024-02-23T06:11:14;6.07;;;3.03;;
67867;SDS011;54672;46.096;14.470;2024-02-23T06:13:40;11.60;;;4.63;;
67867;SDS011;54672;46.096;14.470;2024-02-23T06:16:09;9.27;;;4.30;;
67867;SDS011;54672;46.096;14.470;2024-02-23T06:18:36;14.60;;;6.10;;
67867;SDS011;54672;46.096;14.470;2024-02-23T06:21:10;11.25;;;6.00;;
67867;SDS011;54672;46.096;14.470;2024-02-23T06:23:39;6.43;;;3.35;;
67867;SDS011;54672;46.096;14.470;2024-02-23T06:26:04;5.03;;;2.15;;
67867;SDS011;54672;46.096;14.470;2024-02-23T06:28:30;7.45;;;4.03;;
67867;SDS011;54672;46.096;14.470;2024-02-23T06:30:56;8.73;;;4.93;;
67867;SDS011;54672;46.096;14.470;2024-02-23T06:33:21;4.80;;;2.30;;
67867;SDS011;54672;46.096;14.470;2024-02-23T06:35:46;5.70;;;2.78;;
67867;SDS011;54672;46.096;14.470;2024-02-23T06:38:12;7.25;;;3.35;;
67867;SDS011;54672;46.096;14.470;2024-02-23T06:40:37;5.43;;;2.97;;
67867;SDS011;54672;46.096;14.470;2024-02-23T06:43:03;5.32;;;2.90;;
67867;SDS011;54672;46.096;14.470;2024-02-23T06:45:29;9.27;;;3.22;;
67867;SDS011;54672;46.096;14.470;2024-02-23T06:47:54;5.68;;;3.30;;
67867;SDS011;54672;46.096;14.470;2024-02-23T06:50:19;7.05;;;2.90;;
67867;SDS011;54672;46.096;14.470;2024-02-23T06:52:45;7.03;;;3.28;;
67867;SDS011;54672;46.096;14.470;2024-02-23T06:55:13;6.75;;;2.60;;
67867;SDS011;54672;46.096;14.470;2024-02-23T06:57:39;4.45;;;2.40;;
67867;SDS011;54672;46.096;14.470;2024-02-23T07:00:04;6.18;;;2.72;;
67867;SDS011;54672;46.096;14.470;2024-02-23T07:02:32;5.00;;;2.50;;
67867;SDS011;54672;46.096;14.470;2024-02-23T07:05:01;6.15;;;2.70;;
67867;SDS011;54672;46.096;14.470;2024-02-23T07:07:31;5.22;;;2.75;;
67867;SDS011;54672;46.096;14.470;2024-02-23T07:09:58;4.95;;;2.88;;
67867;SDS011;54672;46.096;14.470;2024-02-23T07:12:39;6.20;;;3.38;;
67867;SDS011;54672;46.096;14.470;2024-02-23T07:31:38;11.38;;;4.13;;
67867;SDS011;54672;46.096;14.470;2024-02-23T07:34:04;6.75;;;3.60;;
67867;SDS011;54672;46.096;14.470;2024-02-23T07:36:29;7.85;;;4.10;;
67867;SDS011;54672;46.096;14.470;2024-02-23T07:48:41;7.82;;;4.07;;
67867;SDS011;54672;46.096;14.470;2024-02-23T07:51:07;12.27;;;4.75;;
67867;SDS011;54672;46.096;14.470;2024-02-23T07:53:32;10.63;;;4.82;;
67867;SDS011;54672;46.096;14.470;2024-02-23T07:55:58;8.20;;;4.15;;
67867;SDS011;54672;46.096;14.470;2024-02-23T07:58:27;9.02;;;4.82;;
67867;SDS011;54672;46.096;14.470;2024-02-23T08:00:52;9.00;;;4.70;;
67867;SDS011;54672;46.096;14.470;2024-02-23T08:09:30;9.98;;;4.45;;
67867;SDS011;54672;46.096;14.470;2024-02-23T08:15:36;9.30;;;4.25;;
67867;SDS011;54672;46.096;14.470;2024-02-23T08:18:01;8.60;;;4.07;;
67867;SDS011;54672;46.096;14.470;2024-02-23T08:29:42;10.13;;;5.15;;
67867;SDS011;54672;46.096;14.470;2024-02-23T08:32:27;8.43;;;4.53;;
67867;SDS011;54672;46.096;14.470;2024-02-23T08:37:55;11.50;;;4.80;;
67867;SDS011;54672;46.096;14.470;2024-02-23T08:40:20;10.00;;;5.40;;
67867;SDS011;54672;46.096;14.470;2024-02-23T08:42:55;8.73;;;5.25;;
67867;SDS011;54672;46.096;14.470;2024-02-23T08:45:26;10.10;;;4.93;;
67867;SDS011;54672;46.096;14.470;2024-02-23T08:47:59;10.15;;;4.80;;
67867;SDS011;54672;46.096;14.470;2024-02-23T09:00:30;7.40;;;3.90;;
67867;SDS011;54672;46.096;14.470;2024-02-23T09:08:57;9.80;;;4.85;;
67867;SDS011;54672;46.096;14.470;2024-02-23T09:11:26;12.20;;;5.13;;
67867;SDS011;54672;46.096;14.470;2024-02-23T09:20:07;8.80;;;4.18;;
67867;SDS011;54672;46.096;14.470;2024-02-23T09:22:33;8.52;;;4.40;;
67867;SDS011;54672;46.096;14.470;2024-02-23T09:25:05;7.88;;;4.38;;
67867;SDS011;54672;46.096;14.470;2024-02-23T09:27:34;26.80;;;10.18;;
67867;SDS011;54672;46.096;14.470;2024-02-23T09:30:07;10.98;;;5.85;;
67867;SDS011;54672;46.096;14.470;2024-02-23T09:32:32;11.00;;;5.32;;
67867;SDS011;54672;46.096;14.470;2024-02-23T09:34:58;9.93;;;4.82;;
67867;SDS011;54672;46.096;14.470;2024-02-23T10:19:28;8.30;;;4.68;;
67867;SDS011;54672;46.096;14.470;2024-02-23T10:21:55;9.15;;;4.13;;
67867;SDS011;54672;46.096;14.470;2024-02-23T10:24:41;7.10;;;3.47;;
67867;SDS011;54672;46.096;14.470;2024-02-23T10:27:07;7.20;;;4.15;;
67867;SDS011;54672;46.096;14.470;2024-02-23T10:29:33;9.10;;;4.13;;
67867;SDS011;54672;46.096;14.470;2024-02-23T10:31:58;7.15;;;4.18;;
67867;SDS011;54672;46.096;14.470;2024-02-23T10:34:26;8.27;;;3.63;;
67867;SDS011;54672;46.096;14.470;2024-02-23T10:36:54;8.73;;;4.38;;
67867;SDS011;54672;46.096;14.470;2024-02-23T10:39:21;8.93;;;4.82;;
67867;SDS011;54672;46.096;14.470;2024-02-23T10:42:00;9.95;;;4.50;;
67867;SDS011;54672;46.096;14.470;2024-02-23T10:44:28;8.05;;;4.28;;
67867;SDS011;54672;46.096;14.470;2024-02-23T10:46:55;8.32;;;4.22;;
67867;SDS011;54672;46.096;14.470;2024-02-23T10:49:23;10.75;;;4.45;;
67867;SDS011;54672;46.096;14.470;2024-02-23T10:51:52;8.20;;;3.90;;
67867;SDS011;54672;46.096;14.470;2024-02-23T10:54:19;11.13;;;4.53;;
67867;SDS011;54672;46.096;14.470;2024-02-23T10:56:46;11.77;;;5.25;;
67867;SDS011;54672;46.096;14.470;2024-02-23T10:59:12;6.18;;;3.38;;
67867;SDS011;54672;46.096;14.470;2024-02-23T11:01:38;8.35;;;4.22;;
67867;SDS011;54672;46.096;14.470;2024-02-23T11:04:05;7.80;;;3.88;;
67867;SDS011;54672;46.096;14.470;2024-02-23T11:06:33;9.20;;;3.92;;
67867;SDS011;54672;46.096;14.470;2024-02-23T11:09:08;7.63;;;4.50;;
67867;SDS011;54672;46.096;14.470;2024-02-23T11:11:37;13.43;;;5.38;;
67867;SDS011;54672;46.096;14.470;2024-02-23T11:14:03;15.98;;;6.47;;
67867;SDS011;54672;46.096;14.470;2024-02-23T11:16:33;9.68;;;4.70;;
67867;SDS011;54672;46.096;14.470;2024-02-23T11:19:04;11.50;;;4.80;;
67867;SDS011;54672;46.096;14.470;2024-02-23T11:21:34;9.43;;;4.63;;
67867;SDS011;54672;46.096;14.470;2024-02-23T11:24:03;8.85;;;4.13;;
67867;SDS011;54672;46.096;14.470;2024-02-23T11:26:29;8.32;;;4.53;;
67867;SDS011;54672;46.096;14.470;2024-02-23T11:28:55;7.50;;;3.67;;
67867;SDS011;54672;46.096;14.470;2024-02-23T11:31:24;7.05;;;3.60;;
67867;SDS011;54672;46.096;14.470;2024-02-23T11:36:34;6.88;;;3.75;;
67867;SDS011;54672;46.096;14.470;2024-02-23T11:39:01;8.65;;;4.15;;
67867;SDS011;54672;46.096;14.470;2024-02-23T11:41:28;6.90;;;3.80;;
67867;SDS011;54672;46.096;14.470;2024-02-23T11:43:54;8.63;;;3.95;;
67867;SDS011;54672;46.096;14.470;2024-02-23T11:46:21;9.43;;;3.95;;
67867;SDS011;54672;46.096;14.470;2024-02-23T11:48:47;6.60;;;3.42;;
67867;SDS011;54672;46.096;14.470;2024-02-23T11:51:18;6.82;;;3.70;;
67867;SDS011;54672;46.096;14.470;2024-02-23T11:53:45;7.80;;;4.25;;
67867;SDS011;54672;46.096;14.470;2024-02-23T11:56:11;10.73;;;4.65;;
67867;SDS011;54672;46.096;14.470;2024-02-23T11:58:36;8.10;;;4.45;;
67867;SDS011;54672;46.096;14.470;2024-02-23T12:01:02;9.15;;;4.55;;
67867;SDS011;54672;46.096;14.470;2024-02-23T12:03:28;9.55;;;4.78;;
67867;SDS011;54672;46.096;14.470;2024-02-23T12:05:56;7.90;;;4.28;;
67867;SDS011;54672;46.096;14.470;2024-02-23T12:08:26;6.80;;;3.53;;
67867;SDS011;54672;46.096;14.470;2024-02-23T12:10:55;6.93;;;3.58;;
67867;SDS011;54672;46.096;14.470;2024-02-23T12:13:21;6.60;;;3.60;;
67867;SDS011;54672;46.096;14.470;2024-02-23T12:15:47;8.23;;;3.35;;
67867;SDS011;54672;46.096;14.470;2024-02-23T12:18:13;8.18;;;4.00;;
67867;SDS011;54672;46.096;14.470;2024-02-23T12:20:40;6.85;;;3.25;;
67867;SDS011;54672;46.096;14.470;2024-02-23T12:23:05;6.93;;;3.65;;
67867;SDS011;54672;46.096;14.470;2024-02-23T12:25:33;9.10;;;4.22;;
67867;SDS011;54672;46.096;14.470;2024-02-23T12:27:58;9.52;;;4.35;;
67867;SDS011;54672;46.096;14.470;2024-02-23T12:30:25;7.00;;;3.97;;
67867;SDS011;54672;46.096;14.470;2024-02-23T12:33:06;6.00;;;2.85;;
67867;SDS011;54672;46.096;14.470;2024-02-23T12:35:36;7.55;;;3.40;;
67867;SDS011;54672;46.096;14.470;2024-02-23T12:38:01;9.82;;;3.60;;
67867;SDS011;54672;46.096;14.470;2024-02-23T12:40:27;5.60;;;3.17;;
67867;SDS011;54672;46.096;14.470;2024-02-23T12:42:52;9.07;;;3.72;;
67867;SDS011;54672;46.096;14.470;2024-02-23T12:45:18;9.35;;;4.13;;
67867;SDS011;54672;46.096;14.470;2024-02-23T12:47:43;10.80;;;4.15;;
67867;SDS011;54672;46.096;14.470;2024-02-23T12:50:08;5.57;;;2.75;;
67867;SDS011;54672;46.096;14.470;2024-02-23T12:52:35;6.28;;;2.92;;
67867;SDS011;54672;46.096;14.470;2024-02-23T12:55:00;5.75;;;3.30;;
67867;SDS011;54672;46.096;14.470;2024-02-23T12:57:26;8.10;;;3.75;;
67867;SDS011;54672;46.096;14.470;2024-02-23T12:59:51;7.68;;;3.47;;
67867;SDS011;54672;46.096;14.470;2024-02-23T13:02:17;8.52;;;3.90;;
67867;SDS011;54672;46.096;14.470;2024-02-23T13:04:42;6.30;;;3.55;;
67867;SDS011;54672;46.096;14.470;2024-02-23T13:07:13;8.40;;;3.72;;
67867;SDS011;54672;46.096;14.470;2024-02-23T13:09:39;8.32;;;3.70;;
67867;SDS011;54672;46.096;14.470;2024-02-23T13:12:05;6.63;;;3.00;;
67867;SDS011;54672;46.096;14.470;2024-02-23T13:14:30;6.35;;;3.33;;
67867;SDS011;54672;46.096;14.470;2024-02-23T13:16:56;7.30;;;3.63;;
67867;SDS011;54672;46.096;14.470;2024-02-23T13:19:21;7.07;;;3.67;;
67867;SDS011;54672;46.096;14.470;2024-02-23T13:21:47;6.55;;;3.17;;
67867;SDS011;54672;46.096;14.470;2024-02-23T13:24:12;6.57;;;3.72;;
67867;SDS011;54672;46.096;14.470;2024-02-23T13:26:37;6.25;;;2.90;;
67867;SDS011;54672;46.096;14.470;2024-02-23T13:29:03;8.00;;;3.42;;
67867;SDS011;54672;46.096;14.470;2024-02-23T13:31:29;5.80;;;3.08;;
67867;SDS011;54672;46.096;14.470;2024-02-23T13:33:54;8.10;;;3.75;;
67867;SDS011;54672;46.096;14.470;2024-02-23T13:36:20;8.02;;;4.00;;
67867;SDS011;54672;46.096;14.470;2024-02-23T13:38:45;7.70;;;4.07;;
67867;SDS011;54672;46.096;14.470;2024-02-23T13:41:11;6.80;;;3.85;;
67867;SDS011;54672;46.096;14.470;2024-02-23T13:43:36;9.95;;;4.68;;
67867;SDS011;54672;46.096;14.470;2024-02-23T13:46:03;10.30;;;4.25;;
67867;SDS011;54672;46.096;14.470;2024-02-23T13:48:29;10.48;;;4.78;;
67867;SDS011;54672;46.096;14.470;2024-02-23T13:50:54;15.75;;;6.22;;
67867;SDS011;54672;46.096;14.470;2024-02-23T13:53:21;12.23;;;6.38;;
67867;SDS011;54672;46.096;14.470;2024-02-23T13:55:47;11.00;;;5.90;;
67867;SDS011;54672;46.096;14.470;2024-02-23T13:58:12;13.02;;;6.88;;
67867;SDS011;54672;46.096;14.470;2024-02-23T14:00:38;12.88;;;6.50;;
67867;SDS011;54672;46.096;14.470;2024-02-23T14:03:03;12.15;;;5.70;;
67867;SDS011;54672;46.096;14.470;2024-02-23T14:05:29;11.98;;;5.28;;
67867;SDS011;54672;46.096;14.470;2024-02-23T14:07:54;12.13;;;5.72;;
67867;SDS011;54672;46.096;14.470;2024-02-23T14:10:20;9.63;;;5.20;;
67867;SDS011;54672;46.096;14.470;2024-02-23T14:12:46;10.07;;;4.93;;
67867;SDS011;54672;46.096;14.470;2024-02-23T14:15:11;9.98;;;5.05;;
67867;SDS011;54672;46.096;14.470;2024-02-23T14:17:37;12.40;;;5.57;;
67867;SDS011;54672;46.096;14.470;2024-02-23T14:20:03;9.55;;;4.57;;
67867;SDS011;54672;46.096;14.470;2024-02-23T14:22:29;7.68;;;4.25;;
67867;SDS011;54672;46.096;14.470;2024-02-23T14:24:55;9.82;;;4.55;;
67867;SDS011;54672;46.096;14.470;2024-02-23T14:27:20;7.20;;;3.72;;
67867;SDS011;54672;46.096;14.470;2024-02-23T14:29:46;7.20;;;3.83;;
67867;SDS011;54672;46.096;14.470;2024-02-23T14:32:18;11.15;;;5.18;;
67867;SDS011;54672;46.096;14.470;2024-02-23T14:34:43;10.35;;;5.40;;
67867;SDS011;54672;46.096;14.470;2024-02-23T14:37:09;11.48;;;5.57;;
67867;SDS011;54672;46.096;14.470;2024-02-23T14:39:35;13.20;;;6.40;;
67867;SDS011;54672;46.096;14.470;2024-02-23T14:42:00;11.25;;;6.43;;
67867;SDS011;54672;46.096;14.470;2024-02-23T14:44:26;11.63;;;5.75;;
67867;SDS011;54672;46.096;14.470;2024-02-23T14:46:52;13.98;;;6.55;;
67867;SDS011;54672;46.096;14.470;2024-02-23T14:49:17;13.15;;;5.70;;
67867;SDS011;54672;46.096;14.470;2024-02-23T14:51:43;16.63;;;5.70;;
67867;SDS011;54672;46.096;14.470;2024-02-23T14:54:11;11.98;;;4.78;;
67867;SDS011;54672;46.096;14.470;2024-02-23T14:56:37;11.13;;;4.90;;
67867;SDS011;54672;46.096;14.470;2024-02-23T14:59:02;9.80;;;4.32;;
67867;SDS011;54672;46.096;14.470;2024-02-23T15:01:28;8.07;;;4.32;;
67867;SDS011;54672;46.096;14.470;2024-02-23T15:03:53;10.13;;;4.65;;
67867;SDS011;54672;46.096;14.470;2024-02-23T15:06:18;17.92;;;7.70;;
67867;SDS011;54672;46.096;14.470;2024-02-23T15:08:46;14.32;;;7.28;;
67867;SDS011;54672;46.096;14.470;2024-02-23T15:11:11;10.43;;;5.32;;
67867;SDS011;54672;46.096;14.470;2024-02-23T15:13:37;13.05;;;5.70;;
67867;SDS011;54672;46.096;14.470;2024-02-23T15:16:02;10.65;;;5.65;;
67867;SDS011;54672;46.096;14.470;2024-02-23T15:18:28;12.35;;;5.18;;
67867;SDS011;54672;46.096;14.470;2024-02-23T15:20:54;16.52;;;8.15;;
67867;SDS011;54672;46.096;14.470;2024-02-23T15:23:20;15.63;;;7.75;;
67867;SDS011;54672;46.096;14.470;2024-02-23T15:25:48;13.27;;;6.50;;
67867;SDS011;54672;46.096;14.470;2024-02-23T15:28:14;14.10;;;7.28;;
67867;SDS011;54672;46.096;14.470;2024-02-23T15:30:40;15.43;;;8.20;;
67867;SDS011;54672;46.096;14.470;2024-02-23T15:33:05;16.55;;;7.72;;
67867;SDS011;54672;46.096;14.470;2024-02-23T15:35:31;18.98;;;9.60;;
67867;SDS011;54672;46.096;14.470;2024-02-23T15:37:57;17.80;;;9.27;;
67867;SDS011;54672;46.096;14.470;2024-02-23T15:40:23;23.33;;;9.77;;
67867;SDS011;54672;46.096;14.470;2024-02-23T15:42:48;25.98;;;12.38;;
67867;SDS011;54672;46.096;14.470;2024-02-23T15:45:15;29.38;;;12.73;;
67867;SDS011;54672;46.096;14.470;2024-02-23T15:47:42;29.35;;;13.13;;
67867;SDS011;54672;46.096;14.470;2024-02-23T15:50:08;21.65;;;9.32;;
67867;SDS011;54672;46.096;14.470;2024-02-23T15:52:33;31.38;;;13.73;;
67867;SDS011;54672;46.096;14.470;2024-02-23T15:54:59;22.90;;;11.70;;
67867;SDS011;54672;46.096;14.470;2024-02-23T15:57:25;24.55;;;11.45;;
67867;SDS011;54672;46.096;14.470;2024-02-23T15:59:50;21.38;;;10.68;;
67867;SDS011;54672;46.096;14.470;2024-02-23T16:02:16;21.50;;;10.20;;
67867;SDS011;54672;46.096;14.470;2024-02-23T16:04:42;17.17;;;6.53;;
67867;SDS011;54672;46.096;14.470;2024-02-23T16:07:07;15.98;;;8.35;;
67867;SDS011;54672;46.096;14.470;2024-02-23T16:09:34;15.23;;;7.25;;
67867;SDS011;54672;46.096;14.470;2024-02-23T16:11:59;14.35;;;7.05;;
67867;SDS011;54672;46.096;14.470;2024-02-23T16:14:25;12.77;;;6.78;;
67867;SDS011;54672;46.096;14.470;2024-02-23T16:16:50;15.13;;;7.10;;
67867;SDS011;54672;46.096;14.470;2024-02-23T16:19:16;15.75;;;7.20;;
67867;SDS011;54672;46.096;14.470;2024-02-23T16:21:42;20.25;;;8.20;;